sensor_id;sensor_type;location;lat;lon;timestamp;temperature;humidity
68433;DHT22;55412;51.350;17.056;2023-07-29T00:01:47;20.00;75.40
68433;DHT22;55412;51.350;17.056;2023-07-29T00:04:15;20.00;75.40
68433;DHT22;55412;51.350;17.056;2023-07-29T00:06:41;20.00;75.60
68433;DHT22;55412;51.350;17.056;2023-07-29T00:09:07;20.00;75.60
68433;DHT22;55412;51.350;17.056;2023-07-29T00:11:34;20.00;75.80
68433;DHT22;55412;51.350;17.056;2023-07-29T00:14:03;20.00;76.00
68433;DHT22;55412;51.350;17.056;2023-07-29T00:16:29;20.00;75.90
68433;DHT22;55412;51.350;17.056;2023-07-29T00:18:55;20.00;76.00
68433;DHT22;55412;51.350;17.056;2023-07-29T00:21:21;20.00;75.70
68433;DHT22;55412;51.350;17.056;2023-07-29T00:23:47;20.00;76.00
68433;DHT22;55412;51.350;17.056;2023-07-29T00:26:14;20.00;76.00
68433;DHT22;55412;51.350;17.056;2023-07-29T00:28:40;20.00;76.20
68433;DHT22;55412;51.350;17.056;2023-07-29T00:31:34;20.00;76.00
68433;DHT22;55412;51.350;17.056;2023-07-29T00:34:01;20.00;75.70
68433;DHT22;55412;51.350;17.056;2023-07-29T00:36:27;20.00;75.60
68433;DHT22;55412;51.350;17.056;2023-07-29T00:38:53;20.00;75.60
68433;DHT22;55412;51.350;17.056;2023-07-29T00:41:22;20.00;75.60
68433;DHT22;55412;51.350;17.056;2023-07-29T00:43:49;19.90;75.50
68433;DHT22;55412;51.350;17.056;2023-07-29T00:46:16;19.90;75.50
68433;DHT22;55412;51.350;17.056;2023-07-29T00:48:42;19.90;75.30
68433;DHT22;55412;51.350;17.056;2023-07-29T00:51:08;19.90;75.10
68433;DHT22;55412;51.350;17.056;2023-07-29T00:53:34;19.90;75.20
68433;DHT22;55412;51.350;17.056;2023-07-29T00:56:01;19.90;75.10
68433;DHT22;55412;51.350;17.056;2023-07-29T00:58:27;19.90;75.10
68433;DHT22;55412;51.350;17.056;2023-07-29T01:00:54;19.90;75.00
68433;DHT22;55412;51.350;17.056;2023-07-29T01:03:21;19.80;74.90
68433;DHT22;55412;51.350;17.056;2023-07-29T01:13:51;19.70;74.60
68433;DHT22;55412;51.350;17.056;2023-07-29T01:16:32;19.70;74.60
68433;DHT22;55412;51.350;17.056;2023-07-29T01:19:06;19.70;74.70
68433;DHT22;55412;51.350;17.056;2023-07-29T01:21:41;19.70;74.50
68433;DHT22;55412;51.350;17.056;2023-07-29T01:24:07;19.60;74.50
68433;DHT22;55412;51.350;17.056;2023-07-29T01:26:33;19.60;74.70
68433;DHT22;55412;51.350;17.056;2023-07-29T01:28:59;19.60;74.70
68433;DHT22;55412;51.350;17.056;2023-07-29T01:34:22;19.50;75.00
68433;DHT22;55412;51.350;17.056;2023-07-29T01:36:53;19.50;75.10
68433;DHT22;55412;51.350;17.056;2023-07-29T01:39:21;19.50;75.30
68433;DHT22;55412;51.350;17.056;2023-07-29T01:41:48;19.50;75.30
68433;DHT22;55412;51.350;17.056;2023-07-29T01:44:15;19.50;75.30
68433;DHT22;55412;51.350;17.056;2023-07-29T01:46:44;19.50;75.40
68433;DHT22;55412;51.350;17.056;2023-07-29T01:49:11;19.50;75.30
68433;DHT22;55412;51.350;17.056;2023-07-29T01:51:38;19.50;75.40
68433;DHT22;55412;51.350;17.056;2023-07-29T01:54:04;19.40;75.50
68433;DHT22;55412;51.350;17.056;2023-07-29T01:56:30;19.40;75.60
68433;DHT22;55412;51.350;17.056;2023-07-29T01:58:56;19.40;75.60
68433;DHT22;55412;51.350;17.056;2023-07-29T02:01:22;19.40;75.60
68433;DHT22;55412;51.350;17.056;2023-07-29T02:03:48;19.40;75.50
68433;DHT22;55412;51.350;17.056;2023-07-29T02:06:21;19.40;75.60
68433;DHT22;55412;51.350;17.056;2023-07-29T02:08:47;19.40;75.60
68433;DHT22;55412;51.350;17.056;2023-07-29T02:11:14;19.40;75.70
68433;DHT22;55412;51.350;17.056;2023-07-29T02:13:40;19.40;75.80
68433;DHT22;55412;51.350;17.056;2023-07-29T02:16:06;19.40;75.70
68433;DHT22;55412;51.350;17.056;2023-07-29T02:18:32;19.40;75.80
68433;DHT22;55412;51.350;17.056;2023-07-29T02:20:58;19.40;75.80
68433;DHT22;55412;51.350;17.056;2023-07-29T02:23:24;19.40;75.70
68433;DHT22;55412;51.350;17.056;2023-07-29T02:25:50;19.30;75.70
68433;DHT22;55412;51.350;17.056;2023-07-29T02:28:16;19.30;75.80
68433;DHT22;55412;51.350;17.056;2023-07-29T02:30:42;19.30;75.80
68433;DHT22;55412;51.350;17.056;2023-07-29T02:33:11;19.30;75.80
68433;DHT22;55412;51.350;17.056;2023-07-29T02:35:37;19.30;76.10
68433;DHT22;55412;51.350;17.056;2023-07-29T02:38:04;19.20;76.00
68433;DHT22;55412;51.350;17.056;2023-07-29T02:40:30;19.30;76.30
68433;DHT22;55412;51.350;17.056;2023-07-29T02:42:56;19.20;76.20
68433;DHT22;55412;51.350;17.056;2023-07-29T02:45:23;19.20;75.90
68433;DHT22;55412;51.350;17.056;2023-07-29T02:47:49;19.20;76.00
68433;DHT22;55412;51.350;17.056;2023-07-29T02:50:15;19.10;76.40
68433;DHT22;55412;51.350;17.056;2023-07-29T02:52:41;19.10;76.40
68433;DHT22;55412;51.350;17.056;2023-07-29T02:55:08;19.10;76.50
68433;DHT22;55412;51.350;17.056;2023-07-29T02:57:34;19.00;76.70
68433;DHT22;55412;51.350;17.056;2023-07-29T03:00:01;19.00;76.80
68433;DHT22;55412;51.350;17.056;2023-07-29T03:02:27;19.00;76.90
68433;DHT22;55412;51.350;17.056;2023-07-29T03:04:53;19.00;76.90
68433;DHT22;55412;51.350;17.056;2023-07-29T03:07:19;19.00;77.10
68433;DHT22;55412;51.350;17.056;2023-07-29T03:09:46;19.00;77.20
68433;DHT22;55412;51.350;17.056;2023-07-29T03:12:12;19.00;77.10
68433;DHT22;55412;51.350;17.056;2023-07-29T03:14:38;19.00;77.10
68433;DHT22;55412;51.350;17.056;2023-07-29T03:17:04;19.00;77.00
68433;DHT22;55412;51.350;17.056;2023-07-29T03:19:31;19.00;76.90
68433;DHT22;55412;51.350;17.056;2023-07-29T03:21:57;19.00;76.80
68433;DHT22;55412;51.350;17.056;2023-07-29T03:24:23;19.00;76.80
68433;DHT22;55412;51.350;17.056;2023-07-29T03:26:49;19.00;76.70
68433;DHT22;55412;51.350;17.056;2023-07-29T03:29:15;19.00;76.90
68433;DHT22;55412;51.350;17.056;2023-07-29T03:31:42;19.00;77.10
68433;DHT22;55412;51.350;17.056;2023-07-29T03:34:08;19.00;77.00
68433;DHT22;55412;51.350;17.056;2023-07-29T03:36:36;19.00;77.10
68433;DHT22;55412;51.350;17.056;2023-07-29T03:39:02;19.00;77.20
68433;DHT22;55412;51.350;17.056;2023-07-29T03:41:29;19.00;77.50
68433;DHT22;55412;51.350;17.056;2023-07-29T03:43:55;19.00;77.40
68433;DHT22;55412;51.350;17.056;2023-07-29T03:46:21;19.00;77.40
68433;DHT22;55412;51.350;17.056;2023-07-29T03:48:47;19.00;77.50
68433;DHT22;55412;51.350;17.056;2023-07-29T03:51:14;19.00;77.50
68433;DHT22;55412;51.350;17.056;2023-07-29T03:53:40;19.00;77.60
68433;DHT22;55412;51.350;17.056;2023-07-29T03:56:07;19.00;77.60
68433;DHT22;55412;51.350;17.056;2023-07-29T03:58:33;19.00;77.70
68433;DHT22;55412;51.350;17.056;2023-07-29T04:00:59;19.10;77.70
68433;DHT22;55412;51.350;17.056;2023-07-29T04:03:25;19.10;77.80
68433;DHT22;55412;51.350;17.056;2023-07-29T04:05:52;19.10;77.70
68433;DHT22;55412;51.350;17.056;2023-07-29T04:08:18;19.10;77.80
68433;DHT22;55412;51.350;17.056;2023-07-29T04:10:46;19.10;78.00
68433;DHT22;55412;51.350;17.056;2023-07-29T04:13:12;19.20;78.10
68433;DHT22;55412;51.350;17.056;2023-07-29T04:15:38;19.20;77.90
68433;DHT22;55412;51.350;17.056;2023-07-29T04:18:04;19.30;78.00
68433;DHT22;55412;51.350;17.056;2023-07-29T04:20:30;19.30;78.00
68433;DHT22;55412;51.350;17.056;2023-07-29T04:22:57;19.30;78.10
68433;DHT22;55412;51.350;17.056;2023-07-29T04:25:23;19.30;77.80
68433;DHT22;55412;51.350;17.056;2023-07-29T04:27:49;19.40;77.90
68433;DHT22;55412;51.350;17.056;2023-07-29T04:30:15;19.40;77.50
68433;DHT22;55412;51.350;17.056;2023-07-29T04:32:41;19.40;77.60
68433;DHT22;55412;51.350;17.056;2023-07-29T04:35:10;19.40;77.40
68433;DHT22;55412;51.350;17.056;2023-07-29T04:37:36;19.50;77.30
68433;DHT22;55412;51.350;17.056;2023-07-29T04:40:03;19.50;77.20
68433;DHT22;55412;51.350;17.056;2023-07-29T04:42:30;19.50;77.10
68433;DHT22;55412;51.350;17.056;2023-07-29T04:44:56;19.60;76.90
68433;DHT22;55412;51.350;17.056;2023-07-29T04:47:22;19.60;76.90
68433;DHT22;55412;51.350;17.056;2023-07-29T04:49:48;19.60;77.00
68433;DHT22;55412;51.350;17.056;2023-07-29T04:52:14;19.70;77.40
68433;DHT22;55412;51.350;17.056;2023-07-29T04:54:41;19.80;77.40
68433;DHT22;55412;51.350;17.056;2023-07-29T04:57:07;19.90;77.40
68433;DHT22;55412;51.350;17.056;2023-07-29T04:59:33;20.00;76.90
68433;DHT22;55412;51.350;17.056;2023-07-29T05:01:59;20.10;76.70
68433;DHT22;55412;51.350;17.056;2023-07-29T05:04:25;20.30;76.30
68433;DHT22;55412;51.350;17.056;2023-07-29T05:06:51;20.40;76.20
68433;DHT22;55412;51.350;17.056;2023-07-29T05:09:18;20.50;75.30
68433;DHT22;55412;51.350;17.056;2023-07-29T05:11:45;20.60;74.90
68433;DHT22;55412;51.350;17.056;2023-07-29T05:14:17;20.80;74.60
68433;DHT22;55412;51.350;17.056;2023-07-29T05:16:43;20.90;74.00
68433;DHT22;55412;51.350;17.056;2023-07-29T05:19:10;21.00;73.80
68433;DHT22;55412;51.350;17.056;2023-07-29T05:21:38;21.10;72.90
68433;DHT22;55412;51.350;17.056;2023-07-29T05:24:04;21.10;73.30
68433;DHT22;55412;51.350;17.056;2023-07-29T05:26:31;21.20;73.30
68433;DHT22;55412;51.350;17.056;2023-07-29T05:28:57;21.20;73.10
68433;DHT22;55412;51.350;17.056;2023-07-29T05:31:23;21.30;74.10
68433;DHT22;55412;51.350;17.056;2023-07-29T05:33:49;21.50;74.00
68433;DHT22;55412;51.350;17.056;2023-07-29T05:36:15;21.60;72.50
68433;DHT22;55412;51.350;17.056;2023-07-29T05:38:41;21.90;71.20
68433;DHT22;55412;51.350;17.056;2023-07-29T05:41:08;22.10;70.80
68433;DHT22;55412;51.350;17.056;2023-07-29T05:43:34;22.30;70.90
68433;DHT22;55412;51.350;17.056;2023-07-29T05:46:00;22.40;70.10
68433;DHT22;55412;51.350;17.056;2023-07-29T05:48:27;22.60;68.80
68433;DHT22;55412;51.350;17.056;2023-07-29T05:50:53;22.80;68.70
68433;DHT22;55412;51.350;17.056;2023-07-29T05:53:19;23.10;68.50
68433;DHT22;55412;51.350;17.056;2023-07-29T05:55:45;23.30;67.70
68433;DHT22;55412;51.350;17.056;2023-07-29T05:58:11;23.50;66.80
68433;DHT22;55412;51.350;17.056;2023-07-29T06:00:37;23.80;67.00
68433;DHT22;55412;51.350;17.056;2023-07-29T06:03:03;24.20;65.70
68433;DHT22;55412;51.350;17.056;2023-07-29T06:05:29;24.50;64.50
68433;DHT22;55412;51.350;17.056;2023-07-29T06:07:56;24.80;63.80
68433;DHT22;55412;51.350;17.056;2023-07-29T06:10:22;25.00;63.20
68433;DHT22;55412;51.350;17.056;2023-07-29T06:12:48;25.20;62.20
68433;DHT22;55412;51.350;17.056;2023-07-29T06:15:14;25.60;61.10
68433;DHT22;55412;51.350;17.056;2023-07-29T06:17:40;25.90;60.90
68433;DHT22;55412;51.350;17.056;2023-07-29T06:20:07;26.10;59.90
68433;DHT22;55412;51.350;17.056;2023-07-29T06:22:33;26.50;59.00
68433;DHT22;55412;51.350;17.056;2023-07-29T06:24:59;26.70;58.10
68433;DHT22;55412;51.350;17.056;2023-07-29T06:27:26;27.00;57.20
68433;DHT22;55412;51.350;17.056;2023-07-29T06:29:52;27.40;56.70
68433;DHT22;55412;51.350;17.056;2023-07-29T06:32:18;27.60;55.70
68433;DHT22;55412;51.350;17.056;2023-07-29T06:34:44;27.90;55.40
68433;DHT22;55412;51.350;17.056;2023-07-29T06:37:10;28.20;54.50
68433;DHT22;55412;51.350;17.056;2023-07-29T06:39:36;28.50;53.50
68433;DHT22;55412;51.350;17.056;2023-07-29T06:42:03;28.70;53.50
68433;DHT22;55412;51.350;17.056;2023-07-29T06:44:29;28.80;53.10
68433;DHT22;55412;51.350;17.056;2023-07-29T06:46:55;28.90;52.60
68433;DHT22;55412;51.350;17.056;2023-07-29T06:49:21;29.10;51.60
68433;DHT22;55412;51.350;17.056;2023-07-29T06:51:47;29.20;51.00
68433;DHT22;55412;51.350;17.056;2023-07-29T06:54:15;29.40;51.40
68433;DHT22;55412;51.350;17.056;2023-07-29T06:56:42;29.70;51.70
68433;DHT22;55412;51.350;17.056;2023-07-29T06:59:08;29.90;51.10
68433;DHT22;55412;51.350;17.056;2023-07-29T07:01:35;30.10;51.50
68433;DHT22;55412;51.350;17.056;2023-07-29T07:04:01;30.30;50.10
68433;DHT22;55412;51.350;17.056;2023-07-29T07:06:27;30.50;49.30
68433;DHT22;55412;51.350;17.056;2023-07-29T07:08:53;30.60;48.80
68433;DHT22;55412;51.350;17.056;2023-07-29T07:11:19;30.80;48.30
68433;DHT22;55412;51.350;17.056;2023-07-29T07:13:45;31.00;48.40
68433;DHT22;55412;51.350;17.056;2023-07-29T07:16:11;31.10;47.40
68433;DHT22;55412;51.350;17.056;2023-07-29T07:18:37;31.30;48.20
68433;DHT22;55412;51.350;17.056;2023-07-29T07:21:03;31.40;47.70
68433;DHT22;55412;51.350;17.056;2023-07-29T07:23:30;31.50;46.90
68433;DHT22;55412;51.350;17.056;2023-07-29T07:25:56;31.50;47.80
68433;DHT22;55412;51.350;17.056;2023-07-29T07:28:22;31.60;46.90
68433;DHT22;55412;51.350;17.056;2023-07-29T07:30:48;31.60;46.90
68433;DHT22;55412;51.350;17.056;2023-07-29T07:33:14;31.60;47.40
68433;DHT22;55412;51.350;17.056;2023-07-29T07:35:40;31.60;46.30
68433;DHT22;55412;51.350;17.056;2023-07-29T07:38:08;31.40;47.20
68433;DHT22;55412;51.350;17.056;2023-07-29T07:40:35;31.50;47.10
68433;DHT22;55412;51.350;17.056;2023-07-29T07:43:02;31.50;47.60
68433;DHT22;55412;51.350;17.056;2023-07-29T07:45:28;31.50;48.10
68433;DHT22;55412;51.350;17.056;2023-07-29T07:47:55;31.40;47.70
68433;DHT22;55412;51.350;17.056;2023-07-29T07:50:22;31.40;48.00
68433;DHT22;55412;51.350;17.056;2023-07-29T07:52:50;31.40;46.70
68433;DHT22;55412;51.350;17.056;2023-07-29T07:55:17;31.30;47.10
68433;DHT22;55412;51.350;17.056;2023-07-29T07:57:43;31.30;47.20
68433;DHT22;55412;51.350;17.056;2023-07-29T08:00:09;31.20;46.60
68433;DHT22;55412;51.350;17.056;2023-07-29T08:02:36;31.10;47.80
68433;DHT22;55412;51.350;17.056;2023-07-29T08:05:02;31.00;47.40
68433;DHT22;55412;51.350;17.056;2023-07-29T08:07:28;30.80;48.10
68433;DHT22;55412;51.350;17.056;2023-07-29T08:09:54;30.80;48.50
68433;DHT22;55412;51.350;17.056;2023-07-29T08:12:20;30.70;49.20
68433;DHT22;55412;51.350;17.056;2023-07-29T08:14:46;30.60;48.00
68433;DHT22;55412;51.350;17.056;2023-07-29T08:17:13;30.50;47.40
68433;DHT22;55412;51.350;17.056;2023-07-29T08:19:39;30.40;48.30
68433;DHT22;55412;51.350;17.056;2023-07-29T08:22:05;30.20;47.20
68433;DHT22;55412;51.350;17.056;2023-07-29T08:24:31;30.10;47.70
68433;DHT22;55412;51.350;17.056;2023-07-29T08:26:57;29.90;49.20
68433;DHT22;55412;51.350;17.056;2023-07-29T08:29:23;29.80;48.70
68433;DHT22;55412;51.350;17.056;2023-07-29T08:31:49;29.70;48.80
68433;DHT22;55412;51.350;17.056;2023-07-29T08:34:17;29.60;48.70
68433;DHT22;55412;51.350;17.056;2023-07-29T08:36:43;29.50;48.90
68433;DHT22;55412;51.350;17.056;2023-07-29T08:39:10;29.40;48.80
68433;DHT22;55412;51.350;17.056;2023-07-29T08:42:07;29.20;49.70
68433;DHT22;55412;51.350;17.056;2023-07-29T08:44:42;29.00;49.60
68433;DHT22;55412;51.350;17.056;2023-07-29T08:47:09;28.90;50.50
68433;DHT22;55412;51.350;17.056;2023-07-29T08:49:39;28.80;50.40
68433;DHT22;55412;51.350;17.056;2023-07-29T08:52:07;28.60;50.90
68433;DHT22;55412;51.350;17.056;2023-07-29T08:54:35;28.60;50.10
68433;DHT22;55412;51.350;17.056;2023-07-29T08:57:01;28.50;50.80
68433;DHT22;55412;51.350;17.056;2023-07-29T08:59:29;28.50;51.90
68433;DHT22;55412;51.350;17.056;2023-07-29T09:01:56;28.40;52.10
68433;DHT22;55412;51.350;17.056;2023-07-29T09:04:23;28.30;51.40
68433;DHT22;55412;51.350;17.056;2023-07-29T09:06:51;28.20;51.40
68433;DHT22;55412;51.350;17.056;2023-07-29T09:09:21;28.20;51.40
68433;DHT22;55412;51.350;17.056;2023-07-29T09:11:54;28.10;51.20
68433;DHT22;55412;51.350;17.056;2023-07-29T09:14:20;28.00;51.40
68433;DHT22;55412;51.350;17.056;2023-07-29T09:16:47;27.90;51.60
68433;DHT22;55412;51.350;17.056;2023-07-29T09:19:13;27.80;51.80
68433;DHT22;55412;51.350;17.056;2023-07-29T09:21:40;27.80;52.60
68433;DHT22;55412;51.350;17.056;2023-07-29T09:24:07;27.70;51.80
68433;DHT22;55412;51.350;17.056;2023-07-29T09:26:34;27.60;51.60
68433;DHT22;55412;51.350;17.056;2023-07-29T09:29:01;27.60;51.80
68433;DHT22;55412;51.350;17.056;2023-07-29T09:31:28;27.60;51.70
68433;DHT22;55412;51.350;17.056;2023-07-29T09:34:03;27.50;52.10
68433;DHT22;55412;51.350;17.056;2023-07-29T09:36:33;27.50;52.30
68433;DHT22;55412;51.350;17.056;2023-07-29T09:39:00;27.50;52.30
68433;DHT22;55412;51.350;17.056;2023-07-29T09:41:27;27.40;52.20
68433;DHT22;55412;51.350;17.056;2023-07-29T09:44:01;27.40;52.60
68433;DHT22;55412;51.350;17.056;2023-07-29T09:46:36;27.40;52.60
68433;DHT22;55412;51.350;17.056;2023-07-29T09:49:07;27.40;52.70
68433;DHT22;55412;51.350;17.056;2023-07-29T09:51:39;27.30;52.10
68433;DHT22;55412;51.350;17.056;2023-07-29T09:54:06;27.30;52.20
68433;DHT22;55412;51.350;17.056;2023-07-29T09:56:39;27.20;52.00
68433;DHT22;55412;51.350;17.056;2023-07-29T09:59:08;27.20;52.60
68433;DHT22;55412;51.350;17.056;2023-07-29T10:01:37;27.20;52.50
68433;DHT22;55412;51.350;17.056;2023-07-29T10:04:04;27.10;52.90
68433;DHT22;55412;51.350;17.056;2023-07-29T10:06:30;27.10;53.70
68433;DHT22;55412;51.350;17.056;2023-07-29T10:08:57;27.10;52.90
68433;DHT22;55412;51.350;17.056;2023-07-29T10:11:23;27.10;53.20
68433;DHT22;55412;51.350;17.056;2023-07-29T10:13:51;27.10;53.70
68433;DHT22;55412;51.350;17.056;2023-07-29T10:16:26;27.00;53.50
68433;DHT22;55412;51.350;17.056;2023-07-29T10:18:53;27.10;53.60
68433;DHT22;55412;51.350;17.056;2023-07-29T10:21:21;27.00;53.10
68433;DHT22;55412;51.350;17.056;2023-07-29T10:23:50;27.00;53.30
68433;DHT22;55412;51.350;17.056;2023-07-29T10:26:20;27.00;52.50
68433;DHT22;55412;51.350;17.056;2023-07-29T10:28:47;26.90;52.60
68433;DHT22;55412;51.350;17.056;2023-07-29T10:31:17;26.90;52.80
68433;DHT22;55412;51.350;17.056;2023-07-29T10:33:44;26.90;52.90
68433;DHT22;55412;51.350;17.056;2023-07-29T10:36:11;26.90;53.50
68433;DHT22;55412;51.350;17.056;2023-07-29T10:38:38;26.90;52.70
68433;DHT22;55412;51.350;17.056;2023-07-29T10:41:04;26.90;52.10
68433;DHT22;55412;51.350;17.056;2023-07-29T10:43:34;26.90;53.00
68433;DHT22;55412;51.350;17.056;2023-07-29T10:46:22;26.90;54.10
68433;DHT22;55412;51.350;17.056;2023-07-29T10:48:55;27.00;54.00
68433;DHT22;55412;51.350;17.056;2023-07-29T10:51:35;27.00;54.20
68433;DHT22;55412;51.350;17.056;2023-07-29T10:54:12;27.00;53.00
68433;DHT22;55412;51.350;17.056;2023-07-29T10:56:46;27.00;53.20
68433;DHT22;55412;51.350;17.056;2023-07-29T11:01:50;27.00;53.80
68433;DHT22;55412;51.350;17.056;2023-07-29T11:04:22;27.00;53.90
68433;DHT22;55412;51.350;17.056;2023-07-29T11:09:51;27.00;53.50
68433;DHT22;55412;51.350;17.056;2023-07-29T11:15:27;27.10;52.80
68433;DHT22;55412;51.350;17.056;2023-07-29T11:17:55;27.10;52.90
68433;DHT22;55412;51.350;17.056;2023-07-29T11:20:32;27.10;54.80
68433;DHT22;55412;51.350;17.056;2023-07-29T11:23:01;27.10;53.00
68433;DHT22;55412;51.350;17.056;2023-07-29T11:25:30;27.20;53.30
68433;DHT22;55412;51.350;17.056;2023-07-29T11:27:58;27.20;53.00
68433;DHT22;55412;51.350;17.056;2023-07-29T11:30:25;27.20;53.50
68433;DHT22;55412;51.350;17.056;2023-07-29T11:32:54;27.20;52.90
68433;DHT22;55412;51.350;17.056;2023-07-29T11:35:22;27.20;52.90
68433;DHT22;55412;51.350;17.056;2023-07-29T11:37:51;27.20;52.40
68433;DHT22;55412;51.350;17.056;2023-07-29T11:40:22;27.20;51.40
68433;DHT22;55412;51.350;17.056;2023-07-29T11:42:50;27.30;51.90
68433;DHT22;55412;51.350;17.056;2023-07-29T11:45:18;27.20;51.60
68433;DHT22;55412;51.350;17.056;2023-07-29T11:47:46;27.20;51.60
68433;DHT22;55412;51.350;17.056;2023-07-29T11:50:13;27.20;51.60
68433;DHT22;55412;51.350;17.056;2023-07-29T11:52:45;27.20;52.00
68433;DHT22;55412;51.350;17.056;2023-07-29T11:55:13;27.30;52.20
68433;DHT22;55412;51.350;17.056;2023-07-29T11:57:41;27.30;51.50
68433;DHT22;55412;51.350;17.056;2023-07-29T12:00:10;27.30;50.60
68433;DHT22;55412;51.350;17.056;2023-07-29T12:02:39;27.40;51.40
68433;DHT22;55412;51.350;17.056;2023-07-29T12:05:08;27.40;50.10
68433;DHT22;55412;51.350;17.056;2023-07-29T12:07:35;27.50;49.60
68433;DHT22;55412;51.350;17.056;2023-07-29T12:10:02;27.50;50.10
68433;DHT22;55412;51.350;17.056;2023-07-29T12:12:29;27.50;50.50
68433;DHT22;55412;51.350;17.056;2023-07-29T12:14:56;27.50;50.60
68433;DHT22;55412;51.350;17.056;2023-07-29T12:17:22;27.50;49.80
68433;DHT22;55412;51.350;17.056;2023-07-29T12:19:48;27.60;49.50
68433;DHT22;55412;51.350;17.056;2023-07-29T12:22:20;27.60;49.30
68433;DHT22;55412;51.350;17.056;2023-07-29T12:24:46;27.70;49.70
68433;DHT22;55412;51.350;17.056;2023-07-29T12:27:14;27.60;50.30
68433;DHT22;55412;51.350;17.056;2023-07-29T12:29:43;27.70;49.00
68433;DHT22;55412;51.350;17.056;2023-07-29T12:32:11;27.70;48.60
68433;DHT22;55412;51.350;17.056;2023-07-29T12:34:38;27.70;48.50
68433;DHT22;55412;51.350;17.056;2023-07-29T12:37:05;27.80;49.40
68433;DHT22;55412;51.350;17.056;2023-07-29T12:39:34;27.80;47.50
68433;DHT22;55412;51.350;17.056;2023-07-29T12:42:02;27.80;47.40
68433;DHT22;55412;51.350;17.056;2023-07-29T12:44:31;27.80;47.80
68433;DHT22;55412;51.350;17.056;2023-07-29T12:47:01;27.70;47.90
68433;DHT22;55412;51.350;17.056;2023-07-29T12:49:29;27.70;47.80
68433;DHT22;55412;51.350;17.056;2023-07-29T12:51:59;27.70;47.50
68433;DHT22;55412;51.350;17.056;2023-07-29T12:54:26;27.70;48.80
68433;DHT22;55412;51.350;17.056;2023-07-29T12:56:52;27.70;47.70
68433;DHT22;55412;51.350;17.056;2023-07-29T12:59:18;27.70;47.80
68433;DHT22;55412;51.350;17.056;2023-07-29T13:01:44;27.60;47.00
68433;DHT22;55412;51.350;17.056;2023-07-29T13:04:11;27.60;47.20
68433;DHT22;55412;51.350;17.056;2023-07-29T13:06:37;27.60;47.80
68433;DHT22;55412;51.350;17.056;2023-07-29T13:09:04;27.60;47.80
68433;DHT22;55412;51.350;17.056;2023-07-29T13:11:31;27.50;47.50
68433;DHT22;55412;51.350;17.056;2023-07-29T13:14:00;27.50;47.40
68433;DHT22;55412;51.350;17.056;2023-07-29T13:16:27;27.40;48.40
68433;DHT22;55412;51.350;17.056;2023-07-29T13:18:54;27.40;47.70
68433;DHT22;55412;51.350;17.056;2023-07-29T13:21:21;27.40;48.10
68433;DHT22;55412;51.350;17.056;2023-07-29T13:23:48;27.30;47.80
68433;DHT22;55412;51.350;17.056;2023-07-29T13:26:14;27.30;47.90
68433;DHT22;55412;51.350;17.056;2023-07-29T13:28:40;27.20;48.40
68433;DHT22;55412;51.350;17.056;2023-07-29T13:31:07;27.20;48.00
68433;DHT22;55412;51.350;17.056;2023-07-29T13:33:36;27.10;48.50
68433;DHT22;55412;51.350;17.056;2023-07-29T13:36:06;27.10;48.50
68433;DHT22;55412;51.350;17.056;2023-07-29T13:38:34;27.10;48.90
68433;DHT22;55412;51.350;17.056;2023-07-29T13:41:00;27.10;49.20
68433;DHT22;55412;51.350;17.056;2023-07-29T13:43:26;27.10;50.00
68433;DHT22;55412;51.350;17.056;2023-07-29T13:45:52;27.10;49.70
68433;DHT22;55412;51.350;17.056;2023-07-29T13:48:19;27.10;49.50
68433;DHT22;55412;51.350;17.056;2023-07-29T13:50:45;27.10;49.00
68433;DHT22;55412;51.350;17.056;2023-07-29T13:53:11;27.10;49.50
68433;DHT22;55412;51.350;17.056;2023-07-29T13:55:37;27.10;50.30
68433;DHT22;55412;51.350;17.056;2023-07-29T13:58:04;27.00;50.70
68433;DHT22;55412;51.350;17.056;2023-07-29T14:00:30;27.10;51.20
68433;DHT22;55412;51.350;17.056;2023-07-29T14:02:56;27.00;51.40
68433;DHT22;55412;51.350;17.056;2023-07-29T14:05:22;27.00;51.00
68433;DHT22;55412;51.350;17.056;2023-07-29T14:07:48;27.00;51.70
68433;DHT22;55412;51.350;17.056;2023-07-29T14:10:15;27.10;51.30
68433;DHT22;55412;51.350;17.056;2023-07-29T14:12:41;27.10;51.00
68433;DHT22;55412;51.350;17.056;2023-07-29T14:15:08;27.10;50.20
68433;DHT22;55412;51.350;17.056;2023-07-29T14:17:35;27.10;50.10
68433;DHT22;55412;51.350;17.056;2023-07-29T14:20:01;27.10;49.80
68433;DHT22;55412;51.350;17.056;2023-07-29T14:22:30;27.20;49.30
68433;DHT22;55412;51.350;17.056;2023-07-29T14:24:56;27.20;49.70
68433;DHT22;55412;51.350;17.056;2023-07-29T14:27:22;27.30;49.40
68433;DHT22;55412;51.350;17.056;2023-07-29T14:29:48;27.20;49.40
68433;DHT22;55412;51.350;17.056;2023-07-29T14:32:15;27.20;49.60
68433;DHT22;55412;51.350;17.056;2023-07-29T14:34:41;27.20;49.70
68433;DHT22;55412;51.350;17.056;2023-07-29T14:37:09;27.30;49.50
68433;DHT22;55412;51.350;17.056;2023-07-29T14:39:36;27.30;49.80
68433;DHT22;55412;51.350;17.056;2023-07-29T14:42:02;27.30;49.80
68433;DHT22;55412;51.350;17.056;2023-07-29T14:44:28;27.30;49.30
68433;DHT22;55412;51.350;17.056;2023-07-29T14:46:54;27.30;49.70
68433;DHT22;55412;51.350;17.056;2023-07-29T14:49:20;27.30;50.00
68433;DHT22;55412;51.350;17.056;2023-07-29T14:51:47;27.30;49.10
68433;DHT22;55412;51.350;17.056;2023-07-29T14:54:14;27.30;48.90
68433;DHT22;55412;51.350;17.056;2023-07-29T14:56:40;27.30;49.10
68433;DHT22;55412;51.350;17.056;2023-07-29T14:59:07;27.30;49.20
68433;DHT22;55412;51.350;17.056;2023-07-29T15:01:33;27.30;49.00
68433;DHT22;55412;51.350;17.056;2023-07-29T15:03:59;27.30;49.20
68433;DHT22;55412;51.350;17.056;2023-07-29T15:06:25;27.20;49.60
68433;DHT22;55412;51.350;17.056;2023-07-29T15:08:51;27.20;50.00
68433;DHT22;55412;51.350;17.056;2023-07-29T15:11:17;27.20;49.20
68433;DHT22;55412;51.350;17.056;2023-07-29T15:13:44;27.20;48.80
68433;DHT22;55412;51.350;17.056;2023-07-29T15:16:10;27.20;49.40
68433;DHT22;55412;51.350;17.056;2023-07-29T15:18:36;27.10;50.40
68433;DHT22;55412;51.350;17.056;2023-07-29T15:21:03;27.10;49.40
68433;DHT22;55412;51.350;17.056;2023-07-29T15:23:29;27.00;48.60
68433;DHT22;55412;51.350;17.056;2023-07-29T15:25:56;27.00;48.70
68433;DHT22;55412;51.350;17.056;2023-07-29T15:28:22;26.90;49.40
68433;DHT22;55412;51.350;17.056;2023-07-29T15:30:49;26.90;50.60
68433;DHT22;55412;51.350;17.056;2023-07-29T15:33:15;26.80;50.80
68433;DHT22;55412;51.350;17.056;2023-07-29T15:35:41;26.70;51.30